Flight Track Log - Related Links

Times and Time Zones

All times are in EDT time to prevent confusion due to time zone crossing. See the JBU51 flight status page for this flight to view local times or setup timezone preferences in your user account.

Time Position Orientation Groundspeed Altitude Reporting Facility
EDT Latitude Longitude Course Direction KTS MPH feet Rate Location/Type
Mon 06:21:58 AM 42.3667 -70.9833 200° South 159 183 700  Level KA90
Mon 06:22:40 AM 42.3667 -70.9333 90° East 156 180 2,000 1,636 Climbing KA90
Mon 06:23:15 AM 42.3725 -70.9019 76° East 175 201 2,800 2,274 Climbing Boston Center
Mon 06:24:15 AM 42.3844 -70.8031 81° East 250 288 5,600 2,033 Climbing Boston Center
Mon 06:25:00 AM 42.2060 -70.6363 160° South  Level FlightAware Approximate
Mon 06:25:16 AM 42.3411 -70.7294 129° Southeast 275 316 6,900  Level Boston Center
Mon 06:26:00 AM 42.0924 -70.6205 200° South  Level FlightAware Approximate
Mon 06:26:17 AM 42.2611 -70.7317 181° South 283 326 9,500  Level Boston Center
Mon 06:27:00 AM 41.9789 -70.6773 200° South  Level FlightAware Approximate
Mon 06:27:16 AM 42.1750 -70.7342 181° South 297 342 11,300  Level Boston Center
Mon 06:28:20 AM 42.0722 -70.7397 182° South 362 417 13,500 1,968 Climbing Boston Center
Mon 06:33:31 AM 41.5767 -71.1016 230° Southwest 428 493 23,600 1,902 Climbing FlightAware ADS-B (KASH)
Mon 06:34:07 AM 41.5278 -71.1744 226° Southwest 439 505 24,500 1,361 Climbing FlightAware ADS-B (KASH)
Mon 06:35:08 AM 41.4378 -71.2875 224° Southwest 444 511 25,800 1,358 Climbing FlightAware ADS-B (KASH)
Mon 06:35:53 AM 41.3694 -71.3734 224° Southwest 447 514 26,900 1,242 Climbing FlightAware ADS-B (KASH)
Mon 06:38:55 AM 41.2099 -71.5724 223° Southwest 471 542 30,500 1,182 Climbing FlightAware ADS-B (KSNC)
Mon 06:42:24 AM 40.7639 -72.1221 223° Southwest 464 534 34,600 1,167 Climbing FlightAware ADS-B (KSNC)
Mon 06:43:12 AM 40.6808 -72.2235 223° Southwest 462 532 35,500 800 Climbing FlightAware ADS-B (KSNC)
Mon 06:44:09 AM 40.5873 -72.3368 223° Southwest 452 520 36,000 345 Climbing FlightAware ADS-B (KSNC)
Mon 06:44:39 AM 40.5430 -72.3905 223° Southwest 455 524 36,000  Level FlightAware ADS-B (KSNC)
Mon 06:45:22 AM 40.4716 -72.4769 223° Southwest 461 531 36,000  Level FlightAware ADS-B (KSNC)
Mon 06:46:11 AM 40.3960 -72.5673 223° Southwest 460 529 36,000  Level FlightAware ADS-B (KSNC)
Mon 06:46:43 AM 40.3453 -72.6284 223° Southwest 459 528 36,000  Level FlightAware ADS-B (KSNC)
Mon 06:47:23 AM 40.2872 -72.6983 222° Southwest 461 531 36,000  Level FlightAware ADS-B (KSNC)
Mon 06:47:55 AM 40.2328 -72.7632 222° Southwest 462 532 36,000  Level FlightAware ADS-B (KSNC)
Mon 06:48:25 AM 40.1856 -72.8194 222° Southwest 463 533 36,000  Level FlightAware ADS-B (KSNC)
Mon 06:49:09 AM 40.1180 -72.8997 222° Southwest 464 534 36,000  Level FlightAware ADS-B (KSNC)
Mon 06:49:39 AM 40.0662 -72.9609 222° Southwest 467 537 36,000  Level FlightAware ADS-B (KSNC)
Mon 06:49:51 AM 40.0481 -72.9824 223° Southwest 463 533 36,000  Level FlightAware ADS-B (KWWD)
Mon 06:50:26 AM 39.9948 -73.0457 222° Southwest 470 541 36,000  Level FlightAware ADS-B (KSNC)
Mon 06:50:37 AM 39.9739 -73.0705 223° Southwest 465 535 36,000  Level FlightAware ADS-B (KWWD)
Mon 06:50:55 AM 39.9453 -73.1042 223° Southwest 466 536 36,000  Level FlightAware ADS-B (KWWD)
Mon 06:51:30 AM 39.8887 -73.1708 222° Southwest 474 545 36,000  Level FlightAware ADS-B (KWWD)
Mon 06:52:04 AM 39.8528 -73.2130 222° Southwest 477 549 36,000  Level FlightAware ADS-B (KSNC)
Mon 06:52:35 AM 39.7793 -73.2941 218° Southwest 484 557 36,000  Level FlightAware ADS-B (KSNC)
Mon 06:53:15 AM 39.7137 -73.3631 219° Southwest 485 558 36,000  Level FlightAware ADS-B (KSNC)
Mon 06:53:29 AM 39.6874 -73.3909 219° Southwest 486 559 36,000  Level FlightAware ADS-B (KSNC)
Mon 06:54:00 AM 39.6309 -73.4499 220° Southwest 482 555 36,000  Level FlightAware ADS-B (KWWD)
Mon 06:54:49 AM 39.5450 -73.5393 219° Southwest 492 566 36,000  Level FlightAware ADS-B (KWWD)
Mon 06:55:19 AM 39.4915 -73.5946 219° Southwest 493 567 36,000  Level FlightAware ADS-B (KWWD)
Mon 06:55:51 AM 39.4352 -73.6527 219° Southwest 494 568 36,000  Level FlightAware ADS-B (KWWD)
Mon 06:56:31 AM 39.3637 -73.7265 219° Southwest 494 568 36,000 75 Level FlightAware ADS-B (KWWD)
Mon 06:57:11 AM 39.2921 -73.8000 219° Southwest 492 566 36,100  Climbing FlightAware ADS-B (KWWD)
Mon 06:57:41 AM 39.2390 -73.8544 219° Southwest 491 565 36,000 -100 Descending FlightAware ADS-B (KWWD)
Mon 06:58:11 AM 39.1849 -73.9099 219° Southwest 490 564 36,000  Level FlightAware ADS-B (KWWD)
Mon 06:58:49 AM 39.1184 -73.9777 218° Southwest 489 563 36,000  Level FlightAware ADS-B (KWWD)
Mon 06:59:21 AM 39.0606 -74.0366 219° Southwest 482 555 36,000  Level FlightAware ADS-B (KWWD)
Mon 06:59:51 AM 39.0089 -74.0892 219° Southwest 481 554 36,000  Level FlightAware ADS-B (KWWD)
Mon 07:00:31 AM 38.9369 -74.1623 219° Southwest 481 554 36,000  Level FlightAware ADS-B (KWWD)
Mon 07:01:01 AM 38.8848 -74.2151 218° Southwest 489 563 36,000  Level FlightAware ADS-B (KWWD)
Mon 07:01:31 AM 38.8311 -74.2694 218° Southwest 490 564 36,000  Level FlightAware ADS-B (KWWD)
Mon 07:02:10 AM 38.7607 -74.3404 218° Southwest 492 566 36,000  Level FlightAware ADS-B (KWWD)
Mon 07:02:41 AM 38.7058 -74.3955 218° Southwest 491 565 36,000  Level FlightAware ADS-B (KWWD)
Mon 07:03:20 AM 38.6369 -74.4646 218° Southwest 491 565 36,000  Level FlightAware ADS-B (KWWD)
Mon 07:03:51 AM 38.5812 -74.5203 218° Southwest 491 565 36,000  Level FlightAware ADS-B (KWWD)
Mon 07:04:21 AM 38.5280 -74.5735 218° Southwest 491 565 36,000  Level FlightAware ADS-B (KWWD)
Mon 07:04:59 AM 38.4606 -74.6409 218° Southwest 491 565 36,000  Level FlightAware ADS-B (KWWD)
Mon 07:06:11 AM 38.3307 -74.7698 218° Southwest 491 565 36,000  Level FlightAware ADS-B (KWWD)
Mon 07:06:52 AM 38.2582 -74.8415 218° Southwest 491 565 36,000  Level FlightAware ADS-B (KWWD)
Mon 07:07:22 AM 38.2039 -74.8950 218° Southwest 490 564 36,000  Level FlightAware ADS-B (KWWD)
Mon 07:07:52 AM 38.1496 -74.9485 218° Southwest 490 564 36,000  Level FlightAware ADS-B (KWWD)
Mon 07:08:37 AM 38.0700 -75.0267 218° Southwest 491 565 36,000  Level FlightAware ADS-B (KWWD)
Mon 07:09:10 AM 38.0107 -75.0851 218° Southwest 492 566 36,000  Level FlightAware ADS-B (KWWD)
Mon 07:09:42 AM 37.9529 -75.1418 218° Southwest 492 566 36,000  Level FlightAware ADS-B (KWWD)
Mon 07:10:18 AM 37.8888 -75.2043 218° Southwest 491 565 36,000  Level FlightAware ADS-B (KWWD)
Mon 07:10:52 AM 37.8274 -75.2641 218° Southwest 491 565 36,000  Level FlightAware ADS-B (KWWD)
Mon 07:11:22 AM 37.7741 -75.3160 218° Southwest 491 565 36,000  Level FlightAware ADS-B (KWWD)
Mon 07:11:52 AM 37.7190 -75.3694 218° Southwest 493 567 36,000  Level FlightAware ADS-B (KWWD)
Mon 07:12:32 AM 37.6466 -75.4398 218° Southwest 489 563 36,000  Level FlightAware ADS-B (KWWD)
Mon 07:13:11 AM 37.5764 -75.5075 218° Southwest 489 563 36,000  Level FlightAware ADS-B (KWWD)
Mon 07:13:52 AM 37.5017 -75.5796 218° Southwest 491 565 36,000  Level FlightAware ADS-B (KWWD)
Mon 07:14:32 AM 37.4272 -75.6510 218° Southwest 490 564 36,000  Level FlightAware ADS-B (KWWD)
Mon 07:15:13 AM 37.3525 -75.7227 218° Southwest 490 564 36,000  Level FlightAware ADS-B (KWWD)
Mon 07:15:43 AM 37.2985 -75.7743 218° Southwest 489 563 36,000  Level FlightAware ADS-B (KWWD)
Mon 07:16:18 AM 37.2345 -75.8354 218° Southwest 487 560 36,000  Level FlightAware ADS-B (KWWD)
Mon 07:16:52 AM 37.1727 -75.8942 218° Southwest 486 559 36,000  Level FlightAware ADS-B (KWWD)
Mon 07:17:23 AM 37.1167 -75.9474 218° Southwest 485 558 36,000  Level FlightAware ADS-B (KWWD)
Mon 07:17:58 AM 37.0552 -76.0096 220° Southwest 487 560 36,000  Level FlightAware ADS-B (KWWD)
Mon 07:18:28 AM 37.0043 -76.0636 220° Southwest 487 560 36,000  Level FlightAware ADS-B (KWWD)
Mon 07:18:58 AM 36.9524 -76.1179 220° Southwest 487 560 36,000  Level FlightAware ADS-B (KWWD)
Mon 07:20:19 AM 36.8116 -76.2629 220° Southwest 483 556 36,000  Level FlightAware ADS-B (KWWD)
Mon 07:20:49 AM 36.7653 -76.3075 220° Southwest 499 574 36,000  Level Washington Center
Mon 07:21:48 AM 36.6603 -76.4206 221° Southwest 499 574 36,000  Level Washington Center
Mon 07:22:48 AM 36.5550 -76.5281 219° Southwest 499 574 36,000  Level Washington Center
Mon 07:23:47 AM 36.4478 -76.6353 219° Southwest 499 574 36,000  Level Washington Center
Mon 07:24:49 AM 36.3425 -76.7394 219° Southwest 499 574 36,000  Level Washington Center
Mon 07:25:48 AM 36.2350 -76.8461 219° Southwest 499 574 36,000  Level Washington Center
Mon 07:26:49 AM 36.1317 -76.9550 220° Southwest 499 574 36,000 -50 Level Washington Center
Mon 07:27:49 AM 36.0219 -77.0583 217° Southwest 499 574 35,900  Descending Washington Center
Mon 07:28:47 AM 35.9436 -77.1494 223° Southwest 499 574 36,000 50 Climbing Washington Center
Mon 07:29:49 AM 35.8272 -77.2622 218° Southwest 489 563 36,000  Level Washington Center
Mon 07:30:49 AM 35.7214 -77.3675 219° Southwest 489 563 36,000  Level Washington Center
Mon 07:31:50 AM 35.6156 -77.4700 218° Southwest 494 568 36,000  Level Washington Center
Mon 07:32:48 AM 35.5075 -77.5747 218° Southwest 494 568 36,000  Level Washington Center
Mon 07:33:50 AM 35.4036 -77.6739 218° Southwest 494 568 36,000  Level Washington Center
Mon 07:34:49 AM 35.2972 -77.7781 219° Southwest 494 568 36,000  Level Washington Center
Mon 07:35:47 AM 35.1933 -77.8769 218° Southwest 494 568 36,000  Level Washington Center
Mon 07:36:48 AM 35.0892 -77.9781 218° Southwest 489 563 36,000  Level Washington Center
Mon 07:37:48 AM 34.9825 -78.0814 218° Southwest 489 563 36,000  Level Washington Center
Mon 07:38:49 AM 34.8803 -78.1794 218° Southwest 479 551 36,000 -39 Level Washington Center
Mon 07:40:21 AM 34.7119 -78.3492 220° Southwest 492 566 35,900  Descending Jacksonville Center
Mon 07:41:21 AM 34.6169 -78.4300 215° Southwest 480 552 36,000 50 Climbing Jacksonville Center
Mon 07:42:21 AM 34.5161 -78.5258 218° Southwest 475 547 36,000  Level Jacksonville Center
Mon 07:43:21 AM 34.4072 -78.6419 221° Southwest 475 547 36,000  Level Jacksonville Center
Mon 07:44:21 AM 34.3042 -78.7375 217° Southwest 475 547 36,000  Level Jacksonville Center
Mon 07:45:21 AM 34.2069 -78.8275 217° Southwest 470 541 36,000  Level Jacksonville Center
Mon 07:46:21 AM 34.1117 -78.9172 218° Southwest 458 527 36,000  Level Jacksonville Center
Mon 07:47:21 AM 34.0247 -78.9989 218° Southwest 453 521 36,000  Level Jacksonville Center
Mon 07:48:21 AM 33.9272 -79.0908 218° Southwest 453 521 36,000  Level Jacksonville Center
Mon 07:49:21 AM 33.8297 -79.1775 216° Southwest 448 516 36,000  Level Jacksonville Center
Mon 07:50:21 AM 33.7364 -79.2664 218° Southwest 443 510 36,000  Level Jacksonville Center
Mon 07:51:21 AM 33.6367 -79.3578 217° Southwest 437 503 36,000 -50 Level Jacksonville Center
Mon 07:52:21 AM 33.5431 -79.4436 217° Southwest 437 503 35,900  Descending Jacksonville Center
Mon 07:53:21 AM 33.4472 -79.5322 218° Southwest 432 497 36,000 50 Climbing Jacksonville Center
Mon 07:54:21 AM 33.3517 -79.6203 218° Southwest 432 497 36,000  Level Jacksonville Center
Mon 07:55:21 AM 33.2558 -79.7083 218° Southwest 432 497 36,000 -50 Level Jacksonville Center
Mon 07:56:21 AM 33.1597 -79.7958 217° Southwest 432 497 35,900  Descending Jacksonville Center
Mon 07:57:21 AM 33.0639 -79.8811 217° Southwest 432 497 36,000 50 Climbing Jacksonville Center
Mon 07:58:21 AM 32.9636 -79.9686 216° Southwest 438 504 36,000  Level Jacksonville Center
Mon 07:59:21 AM 32.8633 -80.0558 216° Southwest 443 510 36,000  Level Jacksonville Center
Mon 08:00:21 AM 32.7586 -80.1358 213° Southwest 448 516 36,000 -50 Level Jacksonville Center
Mon 08:01:21 AM 32.6667 -80.2225 218° Southwest 448 516 35,900 -50 Descending Jacksonville Center
Mon 08:02:21 AM 32.5747 -80.3189 221° Southwest 443 510 35,900 50 Level Jacksonville Center
Mon 08:03:21 AM 32.4825 -80.4150 221° Southwest 443 510 36,000 50 Climbing Jacksonville Center
Mon 08:04:21 AM 32.3986 -80.5011 221° Southwest 440 506 36,000  Level Jacksonville Center
Mon 08:05:21 AM 32.3086 -80.5967 222° Southwest 440 506 36,000  Level Jacksonville Center
Mon 08:06:21 AM 32.2164 -80.6900 221° Southwest 446 513 36,000  Level Jacksonville Center
Mon 08:07:21 AM 32.1178 -80.7928 221° Southwest 446 513 36,000  Level Jacksonville Center
Mon 08:08:21 AM 32.0314 -80.8781 220° Southwest 441 507 36,000  Level Jacksonville Center
Mon 08:09:21 AM 31.9286 -80.9808 220° Southwest 452 520 36,000  Level Jacksonville Center
Mon 08:10:21 AM 31.8383 -81.0756 222° Southwest 447 514 36,000  Level Jacksonville Center
Mon 08:11:21 AM 31.7431 -81.1408 210° Southwest 442 509 36,000  Level Jacksonville Center
Mon 08:12:21 AM 31.6053 -81.1436 181° South 434 499 36,000  Level Jacksonville Center
Mon 08:13:21 AM 31.4822 -81.1411 179° South 439 505 36,000  Level Jacksonville Center
Mon 08:14:21 AM 31.3736 -81.1381 179° South 439 505 36,000  Level Jacksonville Center
Mon 08:15:21 AM 31.2358 -81.1383 180° South 450 518 36,000 -300 Level Jacksonville Center
Mon 08:16:21 AM 31.1083 -81.1358 179° South 450 518 35,400 -750 Descending Jacksonville Center
Mon 08:17:21 AM 30.9872 -81.1356 180° South 450 518 34,500 -750 Descending Jacksonville Center
Mon 08:18:21 AM 30.8619 -81.1331 179° South 450 518 33,900 -250 Descending Jacksonville Center
Mon 08:19:21 AM 30.7367 -81.1306 179° South 444 511 34,000 50 Climbing Jacksonville Center
Mon 08:20:21 AM 30.6092 -81.1306 180° South 451 519 34,000  Level Jacksonville Center
Mon 08:21:21 AM 30.4819 -81.1281 179° South 457 526 34,000 -350 Level Jacksonville Center
Mon 08:22:21 AM 30.3544 -81.1256 179° South 457 526 33,300 -900 Descending Jacksonville Center
Mon 08:23:21 AM 30.2292 -81.1256 180° South 457 526 32,200 -1,650 Descending Jacksonville Center
Mon 08:24:21 AM 30.1039 -81.1231 179° South 457 526 30,000 -2,300 Descending Jacksonville Center
Mon 08:25:21 AM 29.9767 -81.1231 180° South 457 526 27,600 -2,300 Descending Jacksonville Center
Mon 08:26:21 AM 29.8492 -81.1231 180° South 457 526 25,400 -2,200 Descending Jacksonville Center
Mon 08:27:21 AM 29.7261 -81.1203 179° South 452 520 23,200 -2,150 Descending Jacksonville Center
Mon 08:28:21 AM 29.6153 -81.1175 179° South 430 495 21,100 -1,592 Descending Jacksonville Center
Mon 08:34:27 AM 28.9970 -81.0866 172° South 303 349 11,900 -1,396 Descending FlightAware ADS-B
Mon 08:35:48 AM 28.8836 -81.0675 172° South 298 343 10,700 -1,064 Descending FlightAware ADS-B
Mon 08:36:48 AM 28.8056 -81.0653 207° Southwest 275 316 9,400 -1,125 Descending FlightAware ADS-B
Mon 08:37:08 AM 28.7885 -81.0867 241° Southwest 262 302 9,200 -615 Descending FlightAware ADS-B
Mon 08:37:27 AM 28.7803 -81.1066 251° West 250 288 9,000 -712 Descending FlightAware ADS-B
Mon 08:38:07 AM 28.7747 -81.1592 266° West 238 274 8,500 -1,020 Descending FlightAware ADS-B
Mon 08:39:07 AM 28.7510 -81.2273 233° Southwest 234 269 7,300 -1,367 Descending FlightAware ADS-B
Mon 08:39:26 AM 28.7342 -81.2410 208° Southwest 238 274 6,700 -1,700 Descending FlightAware ADS-B
Mon 08:40:07 AM 28.6943 -81.2560 196° South 240 276 5,600 -1,742 Descending FlightAware ADS-B
Mon 08:40:28 AM 28.6692 -81.2637 195° South 236 272 4,900 -1,829 Descending FlightAware ADS-B
Mon 08:41:29 AM 28.6061 -81.2807 193° South 225 259 3,100 -1,440 Descending FlightAware ADS-B
Mon 08:42:08 AM 28.5684 -81.2926 197° South 211 243 2,500 -814 Descending FlightAware ADS-B
Mon 08:42:28 AM 28.5483 -81.2963 180° South 205 236 2,300 -878 Descending FlightAware ADS-B
Mon 08:42:49 AM 28.5297 -81.2967 181° South 200 230 1,900 -1,200 Descending FlightAware ADS-B
Mon 08:43:28 AM 28.4957 -81.2965 180° South 162 186 1,100 -975 Descending FlightAware ADS-B
Mon 08:44:09 AM 28.4684 -81.2962 180° South 137 158 600 -675 Descending FlightAware ADS-B
Mon 08:44:48 AM 28.4427 -81.2960 179° South 138 159 200 -615 Descending FlightAware ADS-B

Login

Don't have an account? Register now (free) for customized features, flight alerts, and more!